createdAt,value
2022-12-03T00:03:20.665Z,17.45
2022-12-03T00:08:22.244Z,23.95
2022-12-03T00:13:23.800Z,19.67
2022-12-03T00:18:25.465Z,19.80
2022-12-03T00:23:26.956Z,17.60
2022-12-03T00:28:28.420Z,17.60
2022-12-03T00:33:30.064Z,14.70
2022-12-03T00:38:31.525Z,8.63
2022-12-03T00:43:33.070Z,9.73
2022-12-03T00:48:34.783Z,7.57
2022-12-03T00:53:36.292Z,8.60
2022-12-03T00:58:37.879Z,7.20
2022-12-03T01:03:39.412Z,16.97
2022-12-03T01:08:40.912Z,10.33
2022-12-03T01:13:42.366Z,11.17
2022-12-03T01:18:46.141Z,9.77
2022-12-03T01:23:47.628Z,6.47
2022-12-03T01:28:49.083Z,8.87
2022-12-03T01:33:50.529Z,9.03
2022-12-03T01:38:52.035Z,11.60
2022-12-03T01:43:55.220Z,10.87
2022-12-03T01:48:56.771Z,8.33
2022-12-03T01:53:59.556Z,9.60
2022-12-03T01:59:01.073Z,11.30
2022-12-03T02:04:02.627Z,11.73
2022-12-03T02:09:04.354Z,14.27
2022-12-03T02:14:10.484Z,13.27
2022-12-03T02:19:31.920Z,16.33
2022-12-03T02:24:55.661Z,12.43
2022-12-03T02:29:57.285Z,12.45
2022-12-03T02:34:58.809Z,10.63
2022-12-03T02:40:04.797Z,15.30
2022-12-03T02:45:14.905Z,15.97
2022-12-03T02:50:20.645Z,17.43
2022-12-03T02:55:23.494Z,12.03
2022-12-03T03:00:25.126Z,13.93
2022-12-03T03:05:26.853Z,15.83
2022-12-03T03:10:30.088Z,12.10
2022-12-03T03:15:31.534Z,12.57
2022-12-03T03:20:33.061Z,16.33
2022-12-03T03:25:34.622Z,17.87
2022-12-03T03:30:38.671Z,12.17
2022-12-03T03:35:40.739Z,12.15
2022-12-03T03:40:42.539Z,11.17
2022-12-03T03:45:44.482Z,14.77
2022-12-03T03:50:47.106Z,14.97
2022-12-03T03:55:49.075Z,14.63
2022-12-03T04:00:51.771Z,15.53
2022-12-03T04:05:53.406Z,14.87
2022-12-03T04:11:13.454Z,10.83
2022-12-03T04:16:14.962Z,14.17
2022-12-03T04:21:40.471Z,11.37
2022-12-03T04:27:00.487Z,14.47
2022-12-03T04:32:20.823Z,17.77
2022-12-03T04:37:22.391Z,15.40
2022-12-03T04:42:23.987Z,14.30
2022-12-03T04:47:25.517Z,17.23
2022-12-03T04:52:26.972Z,14.53
2022-12-03T04:57:28.459Z,12.10
2022-12-03T05:02:29.956Z,14.97
2022-12-03T05:07:31.551Z,13.23
2022-12-03T05:12:33.144Z,20.27
2022-12-03T05:17:34.806Z,19.43
2022-12-03T05:22:36.256Z,21.57
2022-12-03T05:27:37.787Z,23.13
2022-12-03T05:32:39.318Z,20.67
2022-12-03T05:37:40.808Z,20.10
2022-12-03T05:42:54.213Z,23.63
2022-12-03T05:47:56.904Z,22.33
2022-12-03T05:52:58.796Z,23.23
2022-12-03T05:58:00.461Z,21.83
2022-12-03T06:03:02.854Z,23.70
2022-12-03T06:08:04.655Z,23.93
2022-12-03T06:13:06.170Z,25.37
2022-12-03T06:18:07.635Z,23.27
2022-12-03T06:23:09.238Z,26.10
2022-12-03T06:28:10.780Z,22.20
2022-12-03T06:33:12.226Z,21.87
2022-12-03T06:38:13.721Z,23.67
2022-12-03T06:43:15.380Z,20.47
2022-12-03T06:48:16.937Z,22.87
2022-12-03T06:53:18.592Z,20.53
2022-12-03T06:58:21.265Z,20.70
2022-12-03T07:03:22.854Z,22.80
2022-12-03T07:08:24.398Z,24.67
2022-12-03T07:13:25.853Z,21.83
2022-12-03T07:18:27.285Z,23.17
2022-12-03T07:23:28.729Z,26.17
2022-12-03T07:28:30.204Z,23.20
2022-12-03T07:33:31.747Z,19.50
2022-12-03T07:38:33.205Z,19.63
2022-12-03T07:43:34.857Z,25.20
2022-12-03T07:48:36.536Z,23.40
2022-12-03T07:53:38.309Z,22.70
2022-12-03T07:58:39.979Z,25.37
2022-12-03T08:03:42.946Z,28.73
2022-12-03T08:08:44.525Z,31.93
2022-12-03T08:13:46.087Z,29.27
2022-12-03T08:18:49.520Z,25.47
2022-12-03T08:23:51.010Z,25.90
2022-12-03T08:28:53.383Z,23.57
2022-12-03T08:34:06.591Z,22.43
2022-12-03T08:39:29.278Z,23.13
2022-12-03T08:44:38.418Z,27.77
2022-12-03T08:49:40.935Z,22.73
2022-12-03T08:54:43.697Z,26.83
2022-12-03T08:59:45.857Z,22.80
2022-12-03T09:04:47.511Z,24.57
2022-12-03T09:09:49.015Z,23.70
2022-12-03T09:14:50.467Z,25.47
2022-12-03T09:19:52.117Z,24.17
2022-12-03T09:25:08.919Z,25.80
2022-12-03T09:30:10.859Z,22.53
2022-12-03T09:35:12.680Z,23.70
2022-12-03T09:40:14.452Z,24.10
2022-12-03T09:45:16.605Z,25.07
2022-12-03T09:50:24.458Z,23.57
2022-12-03T09:55:27.800Z,26.53
2022-12-03T10:00:30.601Z,28.50
2022-12-03T10:05:33.457Z,25.93
2022-12-03T10:10:35.675Z,22.37
2022-12-03T10:15:37.203Z,20.83
2022-12-03T10:20:38.716Z,21.67
2022-12-03T10:25:55.594Z,22.50
2022-12-03T10:30:58.471Z,20.97
2022-12-03T10:36:23.896Z,22.30
2022-12-03T10:41:28.465Z,18.87
2022-12-03T10:46:30.054Z,20.80
2022-12-03T10:51:31.899Z,25.67
2022-12-03T10:56:33.345Z,22.53
2022-12-03T11:01:34.862Z,22.03
2022-12-03T11:06:36.494Z,21.73
2022-12-03T11:11:38.041Z,23.23
2022-12-03T11:16:39.484Z,24.83
2022-12-03T11:22:07.129Z,26.47
2022-12-03T11:27:18.952Z,31.80
2022-12-03T11:32:38.814Z,26.33
2022-12-03T11:37:40.787Z,27.30
2022-12-03T11:42:43.147Z,39.90
2022-12-03T11:47:46.001Z,33.80
2022-12-03T11:52:52.885Z,46.60
2022-12-03T11:58:00.649Z,29.13
2022-12-03T12:03:02.228Z,27.30
2022-12-03T12:08:04.190Z,25.73
2022-12-03T12:13:06.985Z,25.73
2022-12-03T12:18:39.671Z,27.43
2022-12-03T12:23:41.178Z,26.67
2022-12-03T12:28:42.666Z,21.10
2022-12-03T12:33:44.173Z,26.83
2022-12-03T12:38:45.691Z,23.47
2022-12-03T12:43:47.150Z,25.13
2022-12-03T12:48:48.645Z,22.30
2022-12-03T12:53:50.206Z,23.07
2022-12-03T12:58:52.107Z,24.73
2022-12-03T13:03:54.337Z,23.07
2022-12-03T13:08:56.893Z,24.70
2022-12-03T13:13:58.386Z,22.33
2022-12-03T13:19:01.161Z,21.00
2022-12-03T13:24:19.946Z,21.93
2022-12-03T13:29:25.135Z,20.57
2022-12-03T13:34:31.568Z,19.60
2022-12-03T13:39:36.648Z,21.13
2022-12-03T13:44:45.421Z,19.57
2022-12-03T13:49:53.943Z,27.50
2022-12-03T13:54:56.636Z,23.97
2022-12-03T13:59:58.094Z,25.83
2022-12-03T14:05:00.731Z,28.87
2022-12-03T14:10:02.582Z,27.87
2022-12-03T14:15:06.205Z,23.97
2022-12-03T14:20:08.259Z,24.63
2022-12-03T14:25:10.703Z,20.47
2022-12-03T14:30:12.614Z,24.60
2022-12-03T14:35:14.167Z,23.43
2022-12-03T14:40:21.212Z,25.83
2022-12-03T14:45:24.220Z,27.40
2022-12-03T14:50:25.753Z,28.50
2022-12-03T14:55:27.458Z,29.57
2022-12-03T15:00:28.931Z,31.20
2022-12-03T15:05:30.416Z,27.73
2022-12-03T15:10:31.945Z,32.37
2022-12-03T15:15:33.457Z,30.70
2022-12-03T15:20:35.611Z,32.97
2022-12-03T15:25:37.101Z,31.53
2022-12-03T15:30:38.671Z,31.23
2022-12-03T15:35:41.565Z,29.77
2022-12-03T15:40:43.450Z,30.90
2022-12-03T15:45:45.163Z,29.63
2022-12-03T15:50:46.664Z,32.43
2022-12-03T15:55:48.133Z,33.83
2022-12-03T16:00:49.645Z,30.87
2022-12-03T16:05:51.161Z,30.70
2022-12-03T16:10:52.925Z,34.20
2022-12-03T16:15:54.465Z,33.63
2022-12-03T16:20:56.149Z,48.33
2022-12-03T16:25:57.627Z,43.17
2022-12-03T16:30:59.131Z,38.37
2022-12-03T16:36:00.629Z,40.60
2022-12-03T16:41:02.161Z,42.33
2022-12-03T16:46:21.016Z,38.03
2022-12-03T16:51:22.951Z,35.83
2022-12-03T16:56:24.449Z,36.67
2022-12-03T17:01:27.028Z,38.77
2022-12-03T17:06:28.695Z,32.97
2022-12-03T17:11:30.213Z,33.40
2022-12-03T17:16:31.668Z,34.43
2022-12-03T17:21:35.076Z,31.33
2022-12-03T17:26:36.805Z,29.70
2022-12-03T17:31:42.176Z,34.17
2022-12-03T17:36:44.313Z,40.33
2022-12-03T17:41:45.765Z,44.37
2022-12-03T17:46:47.268Z,45.60
2022-12-03T17:51:48.872Z,39.27
2022-12-03T17:56:50.367Z,42.27
2022-12-03T18:01:52.041Z,40.80
2022-12-03T18:06:57.525Z,41.13
2022-12-03T18:12:02.312Z,38.63
2022-12-03T18:17:03.906Z,37.87
2022-12-03T18:22:05.575Z,39.87
2022-12-03T18:27:07.195Z,42.50
2022-12-03T18:32:27.246Z,40.83
2022-12-03T18:37:31.775Z,33.73
2022-12-03T18:42:33.341Z,42.60
2022-12-03T18:47:34.898Z,39.70
2022-12-03T18:52:36.817Z,38.33
2022-12-03T18:57:38.290Z,33.93
2022-12-03T19:03:01.928Z,35.97
2022-12-03T19:08:01.953Z,36.03
2022-12-03T19:13:03.906Z,39.43
2022-12-03T19:18:07.420Z,38.23
2022-12-03T19:23:09.841Z,39.10
2022-12-03T19:28:11.394Z,37.47
2022-12-03T19:33:17.925Z,32.73
2022-12-03T19:38:19.823Z,38.47
2022-12-03T19:43:21.274Z,43.77
2022-12-03T19:48:23.169Z,38.40
2022-12-03T19:53:26.226Z,68.37
2022-12-03T19:58:27.723Z,34.93
2022-12-03T20:03:29.124Z,36.07
2022-12-03T20:08:30.646Z,46.77
2022-12-03T20:13:36.420Z,34.70
2022-12-03T20:18:42.226Z,38.97
2022-12-03T20:23:44.005Z,34.67
2022-12-03T20:28:47.869Z,41.13
2022-12-03T20:33:52.512Z,36.23
2022-12-03T20:38:59.842Z,34.63
2022-12-03T20:44:02.343Z,29.93
2022-12-03T20:49:05.497Z,29.87
2022-12-03T20:54:07.004Z,24.47
2022-12-03T20:59:12.543Z,29.37
2022-12-03T21:04:14.453Z,24.73
2022-12-03T21:09:16.005Z,23.30
2022-12-03T21:14:17.500Z,25.83
2022-12-03T21:19:20.319Z,22.87
2022-12-03T21:24:21.933Z,23.57
2022-12-03T21:29:24.047Z,22.50
2022-12-03T21:34:25.576Z,19.57
2022-12-03T21:39:27.074Z,17.23
2022-12-03T21:44:28.591Z,27.03
2022-12-03T21:49:30.020Z,24.67
2022-12-03T21:54:31.569Z,25.03
2022-12-03T21:59:33.363Z,23.73
2022-12-03T22:04:35.000Z,27.40
2022-12-03T22:09:36.763Z,32.07
2022-12-03T22:14:38.216Z,33.00
2022-12-03T22:19:39.920Z,34.53
2022-12-03T22:24:41.584Z,34.73
2022-12-03T22:29:43.061Z,36.07
2022-12-03T22:34:44.627Z,30.50
2022-12-03T22:39:46.136Z,32.03
2022-12-03T22:44:47.578Z,30.00
2022-12-03T22:49:49.154Z,34.17
2022-12-03T22:54:50.632Z,31.03
2022-12-03T22:59:52.271Z,31.63
2022-12-03T23:04:55.648Z,30.67
2022-12-03T23:09:57.324Z,29.10
2022-12-03T23:14:59.015Z,26.07
2022-12-03T23:20:00.573Z,31.63
2022-12-03T23:25:02.003Z,33.13
2022-12-03T23:30:04.191Z,32.70
2022-12-03T23:35:06.318Z,33.80
2022-12-03T23:40:08.112Z,36.23
2022-12-03T23:45:09.895Z,36.83
2022-12-03T23:50:11.844Z,39.43
2022-12-03T23:55:13.415Z,39.07
